Killingworth, Connecticut
Current Conditions -  °F | °C
As of 6:15 AM on Thursday 18 Dec 2014 (Local Time) from KSNC Reporting Station
Light Snow Light Snow  
Wind Chill: 27°   Ceiling: 100
Heat Index: 34°   Visibility: 1.7mi
Dew Point: 32°   Wind: 8mph
Humidity: 93%   Direction: 300°WNW
Pressure: 29.85"   Gusts: 22mph
Location:  41.36°N, 72.56°W
Report Text: KSNC 181115Z AUTO 30007G19KT 010V020 1 3/4SM -SN BKN001 BKN006 OVC017 01/00 A2985 RMK AO2 P0018
Loading
Personal Weather Stations






























Interactive Weather Map New forecast layout! Learn more

10-Day Weather Forecast

Advertisements
Track Severe Weather on mobile